createdAt,value
2023-04-18T00:00:02.143Z,61.07
2023-04-18T00:02:29.537Z,60.00
2023-04-18T00:04:56.437Z,60.44
2023-04-18T00:07:22.974Z,59.81
2023-04-18T00:09:49.371Z,57.45
2023-04-18T00:12:15.851Z,57.85
2023-04-18T00:14:42.272Z,57.62
2023-04-18T00:17:08.798Z,57.39
2023-04-18T00:19:37.206Z,56.70
2023-04-18T00:22:03.624Z,56.33
2023-04-18T00:24:30.124Z,56.80
2023-04-18T00:26:57.147Z,57.62
2023-04-18T00:29:23.645Z,57.35
2023-04-18T00:31:50.123Z,57.36
2023-04-18T00:34:16.534Z,57.17
2023-04-18T00:36:43.010Z,57.80
2023-04-18T00:39:09.498Z,58.44
2023-04-18T00:41:35.887Z,56.91
2023-04-18T00:44:02.314Z,57.94
2023-04-18T00:46:28.801Z,57.71
2023-04-18T00:48:55.620Z,58.59
2023-04-18T00:51:22.078Z,58.44
2023-04-18T00:53:48.797Z,58.08
2023-04-18T00:56:15.565Z,57.27
2023-04-18T00:58:41.989Z,57.85
2023-04-18T01:01:09.401Z,57.38
2023-04-18T01:03:37.415Z,58.11
2023-04-18T01:06:04.166Z,58.19
2023-04-18T01:08:30.833Z,57.92
2023-04-18T01:10:57.348Z,57.13
2023-04-18T01:13:23.861Z,57.84
2023-04-18T01:15:53.088Z,58.54
2023-04-18T01:18:20.822Z,58.17
2023-04-18T01:20:49.460Z,58.06
2023-04-18T01:23:17.303Z,57.19
2023-04-18T01:25:45.179Z,57.30
2023-04-18T01:28:14.866Z,57.33
2023-04-18T01:30:41.488Z,57.61
2023-04-18T01:33:09.064Z,56.92
2023-04-18T01:35:35.666Z,57.37
2023-04-18T01:38:02.291Z,58.00
2023-04-18T01:40:30.385Z,57.07
2023-04-18T01:42:57.936Z,57.82
2023-04-18T01:45:24.481Z,58.20
2023-04-18T01:47:51.153Z,57.38
2023-04-18T01:50:19.209Z,57.10
2023-04-18T01:52:45.883Z,57.26
2023-04-18T01:55:12.452Z,57.44
2023-04-18T01:57:38.981Z,57.64
2023-04-18T02:00:06.377Z,56.83
2023-04-18T02:02:33.173Z,57.14
2023-04-18T02:05:01.512Z,57.21
2023-04-18T02:07:27.926Z,57.03
2023-04-18T02:09:54.560Z,57.83
2023-04-18T02:12:23.382Z,58.30
2023-04-18T02:14:55.806Z,58.13
2023-04-18T02:17:23.584Z,58.07
2023-04-18T02:19:53.752Z,58.72
2023-04-18T02:22:20.241Z,58.56
2023-04-18T02:24:46.974Z,58.08
2023-04-18T02:27:13.526Z,59.02
2023-04-18T02:29:40.259Z,58.41
2023-04-18T02:32:09.060Z,58.99
2023-04-18T02:34:36.788Z,59.10
2023-04-18T02:37:03.657Z,58.98
2023-04-18T02:39:30.290Z,59.62
2023-04-18T02:41:56.825Z,60.23
2023-04-18T02:44:23.286Z,59.37
2023-04-18T02:46:49.685Z,60.38
2023-04-18T02:49:16.103Z,59.75
2023-04-18T02:51:42.635Z,60.58
2023-04-18T02:54:10.717Z,59.97
2023-04-18T02:56:40.209Z,60.01
2023-04-18T02:59:07.097Z,60.68
2023-04-18T03:01:33.532Z,60.83
2023-04-18T03:04:00.160Z,61.08
2023-04-18T03:06:27.296Z,61.14
2023-04-18T03:08:56.022Z,60.94
2023-04-18T03:11:22.513Z,61.29
2023-04-18T03:13:49.020Z,61.45
2023-04-18T03:16:15.831Z,61.39
2023-04-18T03:18:42.396Z,61.33
2023-04-18T03:21:08.827Z,61.91
2023-04-18T03:23:35.272Z,61.58
2023-04-18T03:26:01.727Z,61.97
2023-04-18T03:28:28.174Z,62.21
2023-04-18T03:30:54.793Z,62.24
2023-04-18T03:33:22.453Z,62.47
2023-04-18T03:35:48.959Z,62.58
2023-04-18T03:38:15.445Z,62.69
2023-04-18T03:40:44.301Z,63.48
2023-04-18T03:43:11.020Z,63.11
2023-04-18T03:45:37.893Z,63.80
2023-04-18T03:48:06.164Z,64.07
2023-04-18T03:50:33.093Z,63.82
2023-04-18T03:53:01.919Z,64.50
2023-04-18T03:55:28.357Z,64.91
2023-04-18T03:57:55.071Z,64.67
2023-04-18T04:00:21.555Z,65.21
2023-04-18T04:02:48.119Z,65.30
2023-04-18T04:05:14.782Z,65.69
2023-04-18T04:07:41.227Z,65.92
2023-04-18T04:10:08.058Z,65.88
2023-04-18T04:12:34.973Z,66.38
2023-04-18T04:15:01.414Z,66.56
2023-04-18T04:17:28.897Z,66.78
2023-04-18T04:19:55.395Z,67.14
2023-04-18T04:22:22.042Z,66.66
2023-04-18T04:24:48.639Z,67.19
2023-04-18T04:27:15.135Z,66.93
2023-04-18T04:29:44.058Z,67.11
2023-04-18T04:32:10.835Z,67.11
2023-04-18T04:34:37.525Z,67.51
2023-04-18T04:37:03.957Z,67.11
2023-04-18T04:39:30.800Z,67.43
2023-04-18T04:41:57.627Z,67.11
2023-04-18T04:44:26.112Z,67.75
2023-04-18T04:46:54.549Z,67.55
2023-04-18T04:49:21.102Z,67.89
2023-04-18T04:51:47.641Z,68.02
2023-04-18T04:54:14.446Z,67.83
2023-04-18T04:56:41.072Z,68.44
2023-04-18T04:59:07.598Z,68.37
2023-04-18T05:01:34.126Z,68.38
2023-04-18T05:04:00.720Z,68.41
2023-04-18T05:06:27.498Z,68.38
2023-04-18T05:08:55.695Z,68.98
2023-04-18T05:11:22.073Z,68.92
2023-04-18T05:13:48.542Z,69.09
2023-04-18T05:16:15.068Z,68.99
2023-04-18T05:18:42.037Z,68.99
2023-04-18T05:21:08.417Z,68.63
2023-04-18T05:23:37.013Z,69.64
2023-04-18T05:26:04.263Z,69.93
2023-04-18T05:28:31.107Z,69.11
2023-04-18T05:31:01.266Z,69.53
2023-04-18T05:33:31.604Z,69.73
2023-04-18T05:35:58.502Z,69.20
2023-04-18T05:38:25.779Z,69.53
2023-04-18T05:40:52.497Z,69.53
2023-04-18T05:43:19.444Z,69.46
2023-04-18T05:45:46.269Z,69.50
2023-04-18T05:48:13.550Z,69.24
2023-04-18T05:50:40.129Z,69.31
2023-04-18T05:53:06.636Z,69.84
2023-04-18T05:55:34.641Z,69.24
2023-04-18T05:58:01.100Z,69.29
2023-04-18T06:00:28.215Z,68.97
2023-04-18T06:02:57.058Z,69.05
2023-04-18T06:05:28.292Z,68.93
2023-04-18T06:07:55.437Z,68.54
2023-04-18T06:10:21.933Z,69.20
2023-04-18T06:12:48.440Z,68.94
2023-04-18T06:15:14.867Z,69.10
2023-04-18T06:17:41.461Z,69.35
2023-04-18T06:20:09.252Z,69.13
2023-04-18T06:22:35.770Z,69.15
2023-04-18T06:25:02.243Z,68.82
2023-04-18T06:27:31.684Z,68.94
2023-04-18T06:29:58.980Z,68.06
2023-04-18T06:32:25.610Z,68.67
2023-04-18T06:34:53.002Z,68.79
2023-04-18T06:37:19.662Z,67.98
2023-04-18T06:39:46.094Z,68.14
2023-04-18T06:42:12.510Z,68.43
2023-04-18T06:44:39.082Z,67.28
2023-04-18T06:47:07.282Z,67.32
2023-04-18T06:49:34.476Z,67.71
2023-04-18T06:52:00.892Z,66.58
2023-04-18T06:54:27.344Z,66.62
2023-04-18T06:56:53.992Z,66.25
2023-04-18T06:59:21.454Z,66.29
2023-04-18T07:01:47.908Z,65.40
2023-04-18T07:04:15.066Z,65.95
2023-04-18T07:06:42.319Z,65.78
2023-04-18T07:09:08.857Z,66.02
2023-04-18T07:11:35.525Z,65.54
2023-04-18T07:14:01.957Z,65.86
2023-04-18T07:16:29.677Z,65.93
2023-04-18T07:18:56.315Z,65.92
2023-04-18T07:21:23.889Z,65.36
2023-04-18T07:23:50.427Z,64.81
2023-04-18T07:26:16.821Z,65.70
2023-04-18T07:28:43.270Z,65.78
2023-04-18T07:31:11.533Z,65.82
2023-04-18T07:33:38.580Z,65.14
2023-04-18T07:36:05.482Z,65.86
2023-04-18T07:38:33.682Z,65.25
2023-04-18T07:41:01.588Z,65.17
2023-04-18T07:43:28.076Z,65.42
2023-04-18T07:45:54.649Z,65.33
2023-04-18T07:48:22.541Z,65.14
2023-04-18T07:50:49.407Z,64.91
2023-04-18T07:53:18.907Z,62.99
2023-04-18T07:55:45.893Z,60.48
2023-04-18T07:58:12.747Z,56.80
2023-04-18T08:00:39.752Z,56.48
2023-04-18T08:03:12.885Z,55.04
2023-04-18T08:05:40.184Z,52.17
2023-04-18T08:08:08.175Z,51.06
2023-04-18T08:10:34.917Z,50.36
2023-04-18T08:13:02.199Z,49.00
2023-04-18T08:15:29.055Z,48.77
2023-04-18T08:17:56.095Z,48.99
2023-04-18T08:20:23.207Z,49.79
2023-04-18T08:23:04.746Z,52.14
2023-04-18T08:25:33.411Z,54.67
2023-04-18T08:28:00.016Z,56.60
2023-04-18T08:30:26.517Z,57.84
2023-04-18T08:32:53.145Z,58.66
2023-04-18T08:35:19.772Z,59.22
2023-04-18T08:37:46.329Z,58.31
2023-04-18T08:40:12.812Z,58.30
2023-04-18T08:42:40.616Z,58.71
2023-04-18T08:45:07.662Z,59.30
2023-04-18T08:47:35.598Z,59.44
2023-04-18T08:50:02.115Z,60.30
2023-04-18T08:52:30.716Z,59.47
2023-04-18T08:54:57.471Z,60.12
2023-04-18T08:57:27.380Z,60.22
2023-04-18T08:59:54.370Z,61.26
2023-04-18T09:02:24.318Z,61.95
2023-04-18T09:04:55.757Z,61.12
2023-04-18T09:07:29.152Z,61.17
2023-04-18T09:09:57.655Z,61.58
2023-04-18T09:12:26.155Z,60.90
2023-04-18T09:14:57.524Z,61.28
2023-04-18T09:17:53.060Z,60.73
2023-04-18T09:20:44.573Z,61.41
2023-04-18T09:23:14.872Z,61.92
2023-04-18T09:25:44.154Z,60.44
2023-04-18T09:28:31.824Z,59.75
2023-04-18T09:31:13.313Z,59.73
2023-04-18T09:33:43.240Z,60.28
2023-04-18T09:36:22.793Z,60.49
2023-04-18T09:38:52.571Z,61.00
2023-04-18T09:41:22.441Z,60.66
2023-04-18T09:43:49.290Z,60.12
2023-04-18T09:46:17.498Z,60.37
2023-04-18T09:48:44.096Z,59.73
2023-04-18T09:51:18.036Z,57.82
2023-04-18T09:53:47.282Z,57.88
2023-04-18T09:56:26.153Z,56.80
2023-04-18T09:58:56.953Z,55.98
2023-04-18T10:01:27.956Z,58.48
2023-04-18T10:03:55.413Z,57.70
2023-04-18T10:06:22.266Z,57.46
2023-04-18T10:08:49.329Z,56.84
2023-04-18T10:11:15.820Z,56.98
2023-04-18T10:13:49.015Z,56.30
2023-04-18T10:16:16.858Z,55.22
2023-04-18T10:18:43.363Z,56.68
2023-04-18T10:21:10.025Z,55.35
2023-04-18T10:23:37.880Z,56.43
2023-04-18T10:26:08.817Z,55.48
2023-04-18T10:28:56.524Z,54.92
2023-04-18T10:31:25.895Z,53.59
2023-04-18T10:34:18.270Z,52.50
2023-04-18T10:37:05.180Z,52.61
2023-04-18T10:39:47.510Z,53.35
2023-04-18T10:42:14.018Z,54.03
2023-04-18T10:44:40.578Z,54.76
2023-04-18T10:47:10.029Z,54.45
2023-04-18T10:49:38.970Z,55.68
2023-04-18T10:52:06.055Z,55.47
2023-04-18T10:54:46.930Z,56.58
2023-04-18T10:57:13.862Z,56.00
2023-04-18T10:59:45.477Z,56.29
2023-04-18T11:02:25.180Z,54.91
2023-04-18T11:04:54.450Z,54.22
2023-04-18T11:07:33.091Z,53.65
2023-04-18T11:10:01.987Z,53.99
2023-04-18T11:12:33.200Z,53.99
2023-04-18T11:15:02.651Z,54.12
2023-04-18T11:17:32.714Z,52.72
2023-04-18T11:20:01.585Z,53.32
2023-04-18T11:22:28.223Z,52.37
2023-04-18T11:24:59.095Z,52.76
2023-04-18T11:27:26.859Z,53.67
2023-04-18T11:29:54.684Z,52.22
2023-04-18T11:32:24.752Z,52.47
2023-04-18T11:34:53.390Z,52.99
2023-04-18T11:37:20.365Z,52.79
2023-04-18T11:39:46.912Z,53.66
2023-04-18T11:42:13.443Z,53.32
2023-04-18T11:44:40.089Z,53.05
2023-04-18T11:47:22.350Z,53.86
2023-04-18T11:49:56.466Z,53.67
2023-04-18T11:52:25.955Z,53.79
2023-04-18T11:54:52.487Z,53.90
2023-04-18T11:57:23.262Z,54.70
2023-04-18T11:59:56.629Z,54.26
2023-04-18T12:02:38.479Z,54.60
2023-04-18T12:05:05.813Z,54.65
2023-04-18T12:07:38.339Z,55.17
2023-04-18T12:10:09.348Z,56.19
2023-04-18T12:12:36.364Z,54.99
2023-04-18T12:15:16.250Z,55.94
2023-04-18T12:17:48.543Z,55.40
2023-04-18T12:20:16.111Z,55.27
2023-04-18T12:22:50.163Z,53.86
2023-04-18T12:25:27.120Z,53.81
2023-04-18T12:28:04.488Z,55.46
2023-04-18T12:30:37.376Z,54.06
2023-04-18T12:33:04.884Z,53.69
2023-04-18T12:35:32.076Z,53.06
2023-04-18T12:38:02.794Z,53.50
2023-04-18T12:40:30.295Z,52.87
2023-04-18T12:42:56.776Z,52.36
2023-04-18T12:45:26.417Z,51.75
2023-04-18T12:47:53.509Z,52.07
2023-04-18T12:50:25.312Z,50.53
2023-04-18T12:52:53.108Z,49.67
2023-04-18T12:55:20.324Z,49.28
2023-04-18T12:57:46.979Z,49.68
2023-04-18T13:00:13.933Z,50.91
2023-04-18T13:02:44.459Z,51.78
2023-04-18T13:05:13.406Z,52.19
2023-04-18T13:07:40.773Z,50.58
2023-04-18T13:10:11.895Z,50.03
2023-04-18T13:12:39.695Z,49.08
2023-04-18T13:15:08.473Z,47.84
2023-04-18T13:17:36.769Z,47.91
2023-04-18T13:20:12.294Z,46.20
2023-04-18T13:22:39.906Z,46.15
2023-04-18T13:25:08.221Z,46.19
2023-04-18T13:27:34.955Z,45.60
2023-04-18T13:30:02.031Z,45.96
2023-04-18T13:32:28.553Z,45.67
2023-04-18T13:34:56.070Z,47.08
2023-04-18T13:37:22.629Z,46.84
2023-04-18T13:39:49.323Z,47.90
2023-04-18T13:42:16.383Z,48.22
2023-04-18T13:44:42.853Z,48.91
2023-04-18T13:47:09.304Z,47.75
2023-04-18T13:49:36.395Z,47.33
2023-04-18T13:52:03.705Z,47.18
2023-04-18T13:54:34.309Z,46.03
2023-04-18T13:57:04.184Z,46.17
2023-04-18T13:59:31.680Z,46.98
2023-04-18T14:01:58.626Z,48.49
2023-04-18T14:04:25.612Z,47.45
2023-04-18T14:06:52.372Z,45.76
2023-04-18T14:09:18.900Z,46.66
2023-04-18T14:11:45.722Z,46.71
2023-04-18T14:14:12.256Z,46.94
2023-04-18T14:16:38.916Z,46.90
2023-04-18T14:19:05.322Z,46.43
2023-04-18T14:21:31.729Z,45.66
2023-04-18T14:24:00.750Z,45.26
2023-04-18T14:26:27.521Z,43.25
2023-04-18T14:28:54.497Z,43.36
2023-04-18T14:31:21.437Z,43.29
2023-04-18T14:33:47.967Z,44.04
2023-04-18T14:36:16.989Z,44.66
2023-04-18T14:38:47.136Z,45.06
2023-04-18T14:41:13.587Z,44.58
2023-04-18T14:43:40.375Z,45.14
2023-04-18T14:46:16.436Z,43.69
2023-04-18T14:48:45.621Z,44.15
2023-04-18T14:51:12.312Z,42.05
2023-04-18T14:53:39.078Z,42.82
2023-04-18T14:56:05.809Z,42.82
2023-04-18T14:58:32.284Z,42.28
2023-04-18T15:00:58.882Z,42.72
2023-04-18T15:03:25.460Z,44.73
2023-04-18T15:05:53.191Z,43.88
